sensor_id;sensor_type;location;lat;lon;timestamp;temperature;humidity
31783;DHT22;18351;47.560;9.708;2023-04-24T00:01:40;11.10;99.90
31783;DHT22;18351;47.560;9.708;2023-04-24T00:04:06;11.20;99.90
31783;DHT22;18351;47.560;9.708;2023-04-24T00:06:32;11.20;99.90
31783;DHT22;18351;47.560;9.708;2023-04-24T00:09:03;11.10;99.90
31783;DHT22;18351;47.560;9.708;2023-04-24T00:11:28;11.10;99.90
31783;DHT22;18351;47.560;9.708;2023-04-24T00:13:56;11.10;99.90
31783;DHT22;18351;47.560;9.708;2023-04-24T00:16:22;11.10;99.90
31783;DHT22;18351;47.560;9.708;2023-04-24T00:18:48;11.00;99.90
31783;DHT22;18351;47.560;9.708;2023-04-24T00:21:15;11.10;99.90
31783;DHT22;18351;47.560;9.708;2023-04-24T00:23:43;11.00;99.90
31783;DHT22;18351;47.560;9.708;2023-04-24T00:26:09;11.00;99.90
31783;DHT22;18351;47.560;9.708;2023-04-24T00:28:34;10.90;99.90
31783;DHT22;18351;47.560;9.708;2023-04-24T00:31:00;10.90;99.90
31783;DHT22;18351;47.560;9.708;2023-04-24T00:33:26;10.90;99.90
31783;DHT22;18351;47.560;9.708;2023-04-24T00:35:51;10.90;99.90
31783;DHT22;18351;47.560;9.708;2023-04-24T00:38:17;10.80;99.90
31783;DHT22;18351;47.560;9.708;2023-04-24T00:40:42;10.80;99.90
31783;DHT22;18351;47.560;9.708;2023-04-24T00:43:08;10.80;99.90
31783;DHT22;18351;47.560;9.708;2023-04-24T00:45:33;10.90;99.90
31783;DHT22;18351;47.560;9.708;2023-04-24T00:48:00;10.80;99.90
31783;DHT22;18351;47.560;9.708;2023-04-24T00:50:26;10.80;99.90
31783;DHT22;18351;47.560;9.708;2023-04-24T00:52:52;10.80;99.90
31783;DHT22;18351;47.560;9.708;2023-04-24T00:55:18;10.80;99.90
31783;DHT22;18351;47.560;9.708;2023-04-24T00:57:45;10.80;99.90
31783;DHT22;18351;47.560;9.708;2023-04-24T01:00:11;10.80;99.90
31783;DHT22;18351;47.560;9.708;2023-04-24T01:02:41;10.90;99.90
31783;DHT22;18351;47.560;9.708;2023-04-24T01:05:13;10.80;99.90
31783;DHT22;18351;47.560;9.708;2023-04-24T01:07:41;10.80;99.90
31783;DHT22;18351;47.560;9.708;2023-04-24T01:10:09;10.90;99.90
31783;DHT22;18351;47.560;9.708;2023-04-24T01:12:35;10.80;99.90
31783;DHT22;18351;47.560;9.708;2023-04-24T01:15:02;10.80;99.90
31783;DHT22;18351;47.560;9.708;2023-04-24T01:17:29;10.80;99.90
31783;DHT22;18351;47.560;9.708;2023-04-24T01:19:55;10.80;99.90
31783;DHT22;18351;47.560;9.708;2023-04-24T01:22:22;10.80;99.90
31783;DHT22;18351;47.560;9.708;2023-04-24T01:24:48;10.80;99.90
31783;DHT22;18351;47.560;9.708;2023-04-24T01:27:14;10.70;99.90
31783;DHT22;18351;47.560;9.708;2023-04-24T01:29:40;10.80;99.90
31783;DHT22;18351;47.560;9.708;2023-04-24T01:32:06;10.70;99.90
31783;DHT22;18351;47.560;9.708;2023-04-24T01:34:31;10.60;99.90
31783;DHT22;18351;47.560;9.708;2023-04-24T01:36:57;10.60;99.90
31783;DHT22;18351;47.560;9.708;2023-04-24T01:39:23;10.60;99.90
31783;DHT22;18351;47.560;9.708;2023-04-24T01:41:51;10.50;99.90
31783;DHT22;18351;47.560;9.708;2023-04-24T01:44:17;10.40;99.90
31783;DHT22;18351;47.560;9.708;2023-04-24T01:46:43;10.40;99.90
31783;DHT22;18351;47.560;9.708;2023-04-24T01:49:08;10.50;99.90
31783;DHT22;18351;47.560;9.708;2023-04-24T01:51:34;10.40;99.90
31783;DHT22;18351;47.560;9.708;2023-04-24T01:54:00;10.40;99.90
31783;DHT22;18351;47.560;9.708;2023-04-24T01:56:25;10.40;99.90
31783;DHT22;18351;47.560;9.708;2023-04-24T01:58:54;10.30;99.90
31783;DHT22;18351;47.560;9.708;2023-04-24T02:01:20;10.30;99.90
31783;DHT22;18351;47.560;9.708;2023-04-24T02:03:46;10.30;99.90
31783;DHT22;18351;47.560;9.708;2023-04-24T02:06:11;10.20;99.90
31783;DHT22;18351;47.560;9.708;2023-04-24T02:08:37;10.30;99.90
31783;DHT22;18351;47.560;9.708;2023-04-24T02:11:03;10.20;99.90
31783;DHT22;18351;47.560;9.708;2023-04-24T02:13:29;10.30;99.90
31783;DHT22;18351;47.560;9.708;2023-04-24T02:15:54;10.20;99.90
31783;DHT22;18351;47.560;9.708;2023-04-24T02:18:20;10.10;99.90
31783;DHT22;18351;47.560;9.708;2023-04-24T02:20:46;10.10;99.90
31783;DHT22;18351;47.560;9.708;2023-04-24T02:23:11;10.10;99.90
31783;DHT22;18351;47.560;9.708;2023-04-24T02:25:38;10.20;99.90
31783;DHT22;18351;47.560;9.708;2023-04-24T02:28:04;10.20;99.90
31783;DHT22;18351;47.560;9.708;2023-04-24T02:30:29;10.20;99.90
31783;DHT22;18351;47.560;9.708;2023-04-24T02:32:55;10.10;99.90
31783;DHT22;18351;47.560;9.708;2023-04-24T02:35:21;10.10;99.90
31783;DHT22;18351;47.560;9.708;2023-04-24T02:37:47;10.10;99.90
31783;DHT22;18351;47.560;9.708;2023-04-24T02:40:12;10.20;99.90
31783;DHT22;18351;47.560;9.708;2023-04-24T02:42:38;10.10;99.90
31783;DHT22;18351;47.560;9.708;2023-04-24T02:45:04;10.10;99.90
31783;DHT22;18351;47.560;9.708;2023-04-24T02:47:30;10.10;99.90
31783;DHT22;18351;47.560;9.708;2023-04-24T02:49:56;10.10;99.90
31783;DHT22;18351;47.560;9.708;2023-04-24T02:52:21;10.10;99.90
31783;DHT22;18351;47.560;9.708;2023-04-24T02:54:47;10.00;99.90
31783;DHT22;18351;47.560;9.708;2023-04-24T02:57:12;10.00;99.90
31783;DHT22;18351;47.560;9.708;2023-04-24T02:59:38;10.00;99.90
31783;DHT22;18351;47.560;9.708;2023-04-24T03:02:03;10.00;99.90
31783;DHT22;18351;47.560;9.708;2023-04-24T03:04:29;10.00;99.90
31783;DHT22;18351;47.560;9.708;2023-04-24T03:06:54;10.10;99.90
31783;DHT22;18351;47.560;9.708;2023-04-24T03:09:23;10.00;99.90
31783;DHT22;18351;47.560;9.708;2023-04-24T03:11:49;10.00;99.90
31783;DHT22;18351;47.560;9.708;2023-04-24T03:14:15;9.90;99.90
31783;DHT22;18351;47.560;9.708;2023-04-24T03:16:41;10.00;99.90
31783;DHT22;18351;47.560;9.708;2023-04-24T03:19:06;10.00;99.90
31783;DHT22;18351;47.560;9.708;2023-04-24T03:21:33;10.00;99.90
31783;DHT22;18351;47.560;9.708;2023-04-24T03:23:58;10.00;99.90
31783;DHT22;18351;47.560;9.708;2023-04-24T03:26:24;10.00;99.90
31783;DHT22;18351;47.560;9.708;2023-04-24T03:28:50;10.00;99.90
31783;DHT22;18351;47.560;9.708;2023-04-24T03:31:15;10.00;99.90
31783;DHT22;18351;47.560;9.708;2023-04-24T03:33:42;9.90;99.90
31783;DHT22;18351;47.560;9.708;2023-04-24T03:36:07;9.90;99.90
31783;DHT22;18351;47.560;9.708;2023-04-24T03:38:33;10.00;99.90
31783;DHT22;18351;47.560;9.708;2023-04-24T03:40:58;10.00;99.90
31783;DHT22;18351;47.560;9.708;2023-04-24T03:43:24;10.00;99.90
31783;DHT22;18351;47.560;9.708;2023-04-24T03:45:50;10.00;99.90
31783;DHT22;18351;47.560;9.708;2023-04-24T03:48:16;9.90;99.90
31783;DHT22;18351;47.560;9.708;2023-04-24T03:50:41;9.90;99.90
31783;DHT22;18351;47.560;9.708;2023-04-24T03:53:07;9.80;99.90
31783;DHT22;18351;47.560;9.708;2023-04-24T03:55:32;9.90;99.90
31783;DHT22;18351;47.560;9.708;2023-04-24T03:57:58;9.80;99.90
31783;DHT22;18351;47.560;9.708;2023-04-24T04:00:23;9.80;99.90
31783;DHT22;18351;47.560;9.708;2023-04-24T04:02:49;9.90;99.90
31783;DHT22;18351;47.560;9.708;2023-04-24T04:05:15;9.80;99.90
31783;DHT22;18351;47.560;9.708;2023-04-24T04:07:41;9.70;99.90
31783;DHT22;18351;47.560;9.708;2023-04-24T04:10:06;9.70;99.90
31783;DHT22;18351;47.560;9.708;2023-04-24T04:12:33;9.70;99.90
31783;DHT22;18351;47.560;9.708;2023-04-24T04:14:58;9.70;99.90
31783;DHT22;18351;47.560;9.708;2023-04-24T04:17:24;9.70;99.90
31783;DHT22;18351;47.560;9.708;2023-04-24T04:19:49;9.70;99.90
31783;DHT22;18351;47.560;9.708;2023-04-24T04:22:16;9.70;99.90
31783;DHT22;18351;47.560;9.708;2023-04-24T04:24:41;9.70;99.90
31783;DHT22;18351;47.560;9.708;2023-04-24T04:27:07;9.80;99.90
31783;DHT22;18351;47.560;9.708;2023-04-24T04:29:33;9.70;99.90
31783;DHT22;18351;47.560;9.708;2023-04-24T04:31:59;9.70;99.90
31783;DHT22;18351;47.560;9.708;2023-04-24T04:34:25;9.70;99.90
31783;DHT22;18351;47.560;9.708;2023-04-24T04:36:51;9.70;99.90
31783;DHT22;18351;47.560;9.708;2023-04-24T04:39:16;9.60;99.90
31783;DHT22;18351;47.560;9.708;2023-04-24T04:41:44;9.60;99.90
31783;DHT22;18351;47.560;9.708;2023-04-24T04:44:09;9.60;99.90
31783;DHT22;18351;47.560;9.708;2023-04-24T04:46:35;9.60;99.90
31783;DHT22;18351;47.560;9.708;2023-04-24T04:49:02;9.70;99.90
31783;DHT22;18351;47.560;9.708;2023-04-24T04:51:28;9.70;99.90
31783;DHT22;18351;47.560;9.708;2023-04-24T04:53:53;9.70;99.90
31783;DHT22;18351;47.560;9.708;2023-04-24T04:56:19;9.70;99.90
31783;DHT22;18351;47.560;9.708;2023-04-24T04:58:45;9.80;99.90
31783;DHT22;18351;47.560;9.708;2023-04-24T05:01:10;9.80;99.90
31783;DHT22;18351;47.560;9.708;2023-04-24T05:03:36;9.80;99.90
31783;DHT22;18351;47.560;9.708;2023-04-24T05:06:02;9.80;99.90
31783;DHT22;18351;47.560;9.708;2023-04-24T05:08:28;9.90;99.90
31783;DHT22;18351;47.560;9.708;2023-04-24T05:10:54;9.90;99.90
31783;DHT22;18351;47.560;9.708;2023-04-24T05:13:20;9.90;99.90
31783;DHT22;18351;47.560;9.708;2023-04-24T05:15:46;9.90;99.90
31783;DHT22;18351;47.560;9.708;2023-04-24T05:18:12;9.90;99.90
31783;DHT22;18351;47.560;9.708;2023-04-24T05:20:37;9.90;99.90
31783;DHT22;18351;47.560;9.708;2023-04-24T05:23:03;9.90;99.90
31783;DHT22;18351;47.560;9.708;2023-04-24T05:25:28;9.90;99.90
31783;DHT22;18351;47.560;9.708;2023-04-24T05:27:54;9.90;99.90
31783;DHT22;18351;47.560;9.708;2023-04-24T05:30:20;10.00;99.90
31783;DHT22;18351;47.560;9.708;2023-04-24T05:32:45;10.00;99.90
31783;DHT22;18351;47.560;9.708;2023-04-24T05:35:11;10.00;99.90
31783;DHT22;18351;47.560;9.708;2023-04-24T05:37:37;10.00;99.90
31783;DHT22;18351;47.560;9.708;2023-04-24T05:40:03;10.00;99.90
31783;DHT22;18351;47.560;9.708;2023-04-24T05:42:30;10.00;99.90
31783;DHT22;18351;47.560;9.708;2023-04-24T05:44:56;9.90;99.90
31783;DHT22;18351;47.560;9.708;2023-04-24T05:47:22;9.90;99.90
31783;DHT22;18351;47.560;9.708;2023-04-24T05:49:48;9.90;99.90
31783;DHT22;18351;47.560;9.708;2023-04-24T05:52:13;10.00;99.90
31783;DHT22;18351;47.560;9.708;2023-04-24T05:54:39;10.00;99.90
31783;DHT22;18351;47.560;9.708;2023-04-24T05:57:04;10.10;99.90
31783;DHT22;18351;47.560;9.708;2023-04-24T05:59:36;10.10;99.90
31783;DHT22;18351;47.560;9.708;2023-04-24T06:02:04;10.10;99.90
31783;DHT22;18351;47.560;9.708;2023-04-24T06:04:29;10.10;99.90
31783;DHT22;18351;47.560;9.708;2023-04-24T06:06:55;10.10;99.90
31783;DHT22;18351;47.560;9.708;2023-04-24T06:09:24;10.10;99.90
31783;DHT22;18351;47.560;9.708;2023-04-24T06:11:50;10.10;99.90
31783;DHT22;18351;47.560;9.708;2023-04-24T06:14:18;10.10;99.90
31783;DHT22;18351;47.560;9.708;2023-04-24T06:16:43;10.10;99.90
31783;DHT22;18351;47.560;9.708;2023-04-24T06:19:09;10.10;99.90
31783;DHT22;18351;47.560;9.708;2023-04-24T06:21:34;10.20;99.90
31783;DHT22;18351;47.560;9.708;2023-04-24T06:24:00;10.30;99.90
31783;DHT22;18351;47.560;9.708;2023-04-24T06:26:26;10.30;99.90
31783;DHT22;18351;47.560;9.708;2023-04-24T06:28:52;10.30;99.90
31783;DHT22;18351;47.560;9.708;2023-04-24T06:31:19;10.30;99.90
31783;DHT22;18351;47.560;9.708;2023-04-24T06:33:45;10.40;99.90
31783;DHT22;18351;47.560;9.708;2023-04-24T06:36:11;10.40;99.90
31783;DHT22;18351;47.560;9.708;2023-04-24T06:38:37;10.40;99.90
31783;DHT22;18351;47.560;9.708;2023-04-24T06:41:02;10.40;99.90
31783;DHT22;18351;47.560;9.708;2023-04-24T06:43:30;10.50;99.90
31783;DHT22;18351;47.560;9.708;2023-04-24T06:45:57;10.50;99.90
31783;DHT22;18351;47.560;9.708;2023-04-24T06:48:24;10.50;99.90
31783;DHT22;18351;47.560;9.708;2023-04-24T06:50:49;10.50;99.90
31783;DHT22;18351;47.560;9.708;2023-04-24T06:53:15;10.60;99.90
31783;DHT22;18351;47.560;9.708;2023-04-24T06:55:40;10.60;99.90
31783;DHT22;18351;47.560;9.708;2023-04-24T06:58:06;10.60;99.90
31783;DHT22;18351;47.560;9.708;2023-04-24T07:00:32;10.60;99.90
31783;DHT22;18351;47.560;9.708;2023-04-24T07:02:57;10.70;99.90
31783;DHT22;18351;47.560;9.708;2023-04-24T07:05:23;10.70;99.90
31783;DHT22;18351;47.560;9.708;2023-04-24T07:07:49;10.70;99.90
31783;DHT22;18351;47.560;9.708;2023-04-24T07:10:15;10.70;99.90
31783;DHT22;18351;47.560;9.708;2023-04-24T07:12:41;10.60;99.90
31783;DHT22;18351;47.560;9.708;2023-04-24T07:15:07;10.70;99.90
31783;DHT22;18351;47.560;9.708;2023-04-24T07:17:34;10.70;99.90
31783;DHT22;18351;47.560;9.708;2023-04-24T07:20:00;10.70;99.90
31783;DHT22;18351;47.560;9.708;2023-04-24T07:22:26;10.80;99.90
31783;DHT22;18351;47.560;9.708;2023-04-24T07:24:51;11.00;99.90
31783;DHT22;18351;47.560;9.708;2023-04-24T07:27:17;11.10;99.90
31783;DHT22;18351;47.560;9.708;2023-04-24T07:29:42;11.10;99.90
31783;DHT22;18351;47.560;9.708;2023-04-24T07:32:08;11.20;99.90
31783;DHT22;18351;47.560;9.708;2023-04-24T07:34:34;11.30;99.90
31783;DHT22;18351;47.560;9.708;2023-04-24T07:37:00;11.30;99.90
31783;DHT22;18351;47.560;9.708;2023-04-24T07:39:26;11.40;99.90
31783;DHT22;18351;47.560;9.708;2023-04-24T07:41:51;11.60;99.90
31783;DHT22;18351;47.560;9.708;2023-04-24T07:44:17;11.70;99.90
31783;DHT22;18351;47.560;9.708;2023-04-24T07:46:43;11.80;99.90
31783;DHT22;18351;47.560;9.708;2023-04-24T07:49:08;11.80;99.90
31783;DHT22;18351;47.560;9.708;2023-04-24T07:51:34;11.80;99.90
31783;DHT22;18351;47.560;9.708;2023-04-24T07:54:04;11.90;99.90
31783;DHT22;18351;47.560;9.708;2023-04-24T07:56:31;11.90;99.90
31783;DHT22;18351;47.560;9.708;2023-04-24T07:58:56;12.00;99.90
31783;DHT22;18351;47.560;9.708;2023-04-24T08:01:22;12.10;99.90
31783;DHT22;18351;47.560;9.708;2023-04-24T08:03:47;12.20;99.90
31783;DHT22;18351;47.560;9.708;2023-04-24T08:06:13;12.20;99.90
31783;DHT22;18351;47.560;9.708;2023-04-24T08:08:39;12.20;99.90
31783;DHT22;18351;47.560;9.708;2023-04-24T08:11:04;12.30;99.90
31783;DHT22;18351;47.560;9.708;2023-04-24T08:13:30;12.30;99.90
31783;DHT22;18351;47.560;9.708;2023-04-24T08:15:56;12.70;99.90
31783;DHT22;18351;47.560;9.708;2023-04-24T08:18:22;13.00;99.90
31783;DHT22;18351;47.560;9.708;2023-04-24T08:20:47;13.00;99.90
31783;DHT22;18351;47.560;9.708;2023-04-24T08:23:13;13.20;99.90
31783;DHT22;18351;47.560;9.708;2023-04-24T08:25:39;13.40;99.90
31783;DHT22;18351;47.560;9.708;2023-04-24T08:28:06;13.70;99.90
31783;DHT22;18351;47.560;9.708;2023-04-24T08:30:32;13.90;99.90
31783;DHT22;18351;47.560;9.708;2023-04-24T08:32:57;14.00;99.90
31783;DHT22;18351;47.560;9.708;2023-04-24T08:35:23;14.20;99.90
31783;DHT22;18351;47.560;9.708;2023-04-24T08:37:49;14.30;99.90
31783;DHT22;18351;47.560;9.708;2023-04-24T08:40:16;14.40;99.90
31783;DHT22;18351;47.560;9.708;2023-04-24T08:42:43;14.50;99.90
31783;DHT22;18351;47.560;9.708;2023-04-24T08:45:11;14.50;99.90
31783;DHT22;18351;47.560;9.708;2023-04-24T08:47:38;14.80;99.90
31783;DHT22;18351;47.560;9.708;2023-04-24T08:50:05;15.20;99.90
31783;DHT22;18351;47.560;9.708;2023-04-24T08:52:33;15.30;99.90
31783;DHT22;18351;47.560;9.708;2023-04-24T08:55:02;15.40;99.90
31783;DHT22;18351;47.560;9.708;2023-04-24T08:57:28;15.40;99.90
31783;DHT22;18351;47.560;9.708;2023-04-24T08:59:54;15.30;99.90
31783;DHT22;18351;47.560;9.708;2023-04-24T09:02:22;15.00;99.90
31783;DHT22;18351;47.560;9.708;2023-04-24T09:04:49;14.70;99.90
31783;DHT22;18351;47.560;9.708;2023-04-24T09:07:16;14.40;99.90
31783;DHT22;18351;47.560;9.708;2023-04-24T09:09:43;14.00;99.90
31783;DHT22;18351;47.560;9.708;2023-04-24T09:12:09;13.30;99.90
31783;DHT22;18351;47.560;9.708;2023-04-24T09:14:35;12.70;99.90
31783;DHT22;18351;47.560;9.708;2023-04-24T09:17:03;12.00;99.90
31783;DHT22;18351;47.560;9.708;2023-04-24T09:19:29;11.60;99.90
31783;DHT22;18351;47.560;9.708;2023-04-24T09:21:55;11.30;99.90
31783;DHT22;18351;47.560;9.708;2023-04-24T09:24:21;11.10;99.90
31783;DHT22;18351;47.560;9.708;2023-04-24T09:26:57;11.00;99.90
31783;DHT22;18351;47.560;9.708;2023-04-24T09:29:32;10.70;99.90
31783;DHT22;18351;47.560;9.708;2023-04-24T09:31:58;10.60;99.90
31783;DHT22;18351;47.560;9.708;2023-04-24T09:34:26;10.50;99.90
31783;DHT22;18351;47.560;9.708;2023-04-24T09:36:52;10.40;99.90
31783;DHT22;18351;47.560;9.708;2023-04-24T09:39:18;10.30;99.90
31783;DHT22;18351;47.560;9.708;2023-04-24T09:41:54;10.30;99.90
31783;DHT22;18351;47.560;9.708;2023-04-24T09:44:27;10.20;99.90
31783;DHT22;18351;47.560;9.708;2023-04-24T09:46:55;10.30;99.90
31783;DHT22;18351;47.560;9.708;2023-04-24T09:49:28;10.40;99.90
31783;DHT22;18351;47.560;9.708;2023-04-24T09:52:08;10.60;99.90
31783;DHT22;18351;47.560;9.708;2023-04-24T09:54:34;10.70;99.90
31783;DHT22;18351;47.560;9.708;2023-04-24T09:57:02;10.80;99.90
31783;DHT22;18351;47.560;9.708;2023-04-24T09:59:27;10.80;99.90
31783;DHT22;18351;47.560;9.708;2023-04-24T10:01:59;10.80;99.90
31783;DHT22;18351;47.560;9.708;2023-04-24T10:04:26;10.70;99.90
31783;DHT22;18351;47.560;9.708;2023-04-24T10:06:54;10.70;99.90
31783;DHT22;18351;47.560;9.708;2023-04-24T10:09:22;10.70;99.90
31783;DHT22;18351;47.560;9.708;2023-04-24T10:11:51;10.70;99.90
31783;DHT22;18351;47.560;9.708;2023-04-24T10:14:18;10.90;99.90
31783;DHT22;18351;47.560;9.708;2023-04-24T10:16:44;11.10;99.90
31783;DHT22;18351;47.560;9.708;2023-04-24T10:19:12;11.30;99.90
31783;DHT22;18351;47.560;9.708;2023-04-24T10:21:40;11.50;99.90
31783;DHT22;18351;47.560;9.708;2023-04-24T10:24:16;11.70;99.90
31783;DHT22;18351;47.560;9.708;2023-04-24T10:26:43;11.80;99.90
31783;DHT22;18351;47.560;9.708;2023-04-24T10:29:10;12.10;99.90
31783;DHT22;18351;47.560;9.708;2023-04-24T10:31:38;12.10;99.90
31783;DHT22;18351;47.560;9.708;2023-04-24T10:34:09;12.30;99.90
31783;DHT22;18351;47.560;9.708;2023-04-24T10:36:36;12.60;99.90
31783;DHT22;18351;47.560;9.708;2023-04-24T10:39:03;12.90;99.90
31783;DHT22;18351;47.560;9.708;2023-04-24T10:41:32;13.00;99.90
31783;DHT22;18351;47.560;9.708;2023-04-24T10:44:08;13.10;99.90
31783;DHT22;18351;47.560;9.708;2023-04-24T10:46:35;13.10;99.90
31783;DHT22;18351;47.560;9.708;2023-04-24T10:49:06;13.20;99.90
31783;DHT22;18351;47.560;9.708;2023-04-24T10:51:51;13.20;99.90
31783;DHT22;18351;47.560;9.708;2023-04-24T10:54:26;13.10;99.90
31783;DHT22;18351;47.560;9.708;2023-04-24T10:56:52;12.90;99.90
31783;DHT22;18351;47.560;9.708;2023-04-24T10:59:26;13.00;99.90
31783;DHT22;18351;47.560;9.708;2023-04-24T11:01:52;13.00;99.90
31783;DHT22;18351;47.560;9.708;2023-04-24T11:04:31;13.10;99.90
31783;DHT22;18351;47.560;9.708;2023-04-24T11:06:58;13.10;99.90
31783;DHT22;18351;47.560;9.708;2023-04-24T11:09:27;13.10;99.90
31783;DHT22;18351;47.560;9.708;2023-04-24T11:12:06;12.90;99.90
31783;DHT22;18351;47.560;9.708;2023-04-24T11:17:37;12.80;99.90
31783;DHT22;18351;47.560;9.708;2023-04-24T11:20:09;12.70;99.90
31783;DHT22;18351;47.560;9.708;2023-04-24T11:22:36;12.70;99.90
31783;DHT22;18351;47.560;9.708;2023-04-24T11:25:03;12.80;99.90
31783;DHT22;18351;47.560;9.708;2023-04-24T11:27:31;13.00;99.90
31783;DHT22;18351;47.560;9.708;2023-04-24T11:32:27;13.20;99.90
31783;DHT22;18351;47.560;9.708;2023-04-24T11:37:19;13.30;99.90
31783;DHT22;18351;47.560;9.708;2023-04-24T11:39:45;13.40;99.90
31783;DHT22;18351;47.560;9.708;2023-04-24T11:42:10;13.50;99.90
31783;DHT22;18351;47.560;9.708;2023-04-24T11:44:39;13.70;99.90
31783;DHT22;18351;47.560;9.708;2023-04-24T11:47:06;13.70;99.90
31783;DHT22;18351;47.560;9.708;2023-04-24T11:49:37;13.70;99.90
31783;DHT22;18351;47.560;9.708;2023-04-24T11:52:04;13.80;99.90
31783;DHT22;18351;47.560;9.708;2023-04-24T11:54:29;14.00;99.90
31783;DHT22;18351;47.560;9.708;2023-04-24T11:56:56;13.90;97.30
31783;DHT22;18351;47.560;9.708;2023-04-24T11:59:22;13.60;98.20
31783;DHT22;18351;47.560;9.708;2023-04-24T12:01:48;13.60;97.70
31783;DHT22;18351;47.560;9.708;2023-04-24T12:04:16;13.60;99.00
31783;DHT22;18351;47.560;9.708;2023-04-24T12:07:04;13.80;98.80
31783;DHT22;18351;47.560;9.708;2023-04-24T12:09:47;14.00;97.60
31783;DHT22;18351;47.560;9.708;2023-04-24T12:12:17;14.00;96.90
31783;DHT22;18351;47.560;9.708;2023-04-24T12:15:06;14.30;98.20
31783;DHT22;18351;47.560;9.708;2023-04-24T12:17:33;14.50;96.40
31783;DHT22;18351;47.560;9.708;2023-04-24T12:20:02;14.70;96.70
31783;DHT22;18351;47.560;9.708;2023-04-24T12:22:44;14.80;97.00
31783;DHT22;18351;47.560;9.708;2023-04-24T12:25:11;14.90;95.20
31783;DHT22;18351;47.560;9.708;2023-04-24T12:27:37;15.20;95.50
31783;DHT22;18351;47.560;9.708;2023-04-24T12:30:04;15.30;92.70
31783;DHT22;18351;47.560;9.708;2023-04-24T12:32:30;15.20;91.30
31783;DHT22;18351;47.560;9.708;2023-04-24T12:34:57;15.20;93.30
31783;DHT22;18351;47.560;9.708;2023-04-24T12:37:26;15.20;92.50
31783;DHT22;18351;47.560;9.708;2023-04-24T12:40:06;14.80;91.50
31783;DHT22;18351;47.560;9.708;2023-04-24T12:42:33;14.70;92.90
31783;DHT22;18351;47.560;9.708;2023-04-24T12:45:00;14.60;92.50
31783;DHT22;18351;47.560;9.708;2023-04-24T12:47:27;14.70;93.90
31783;DHT22;18351;47.560;9.708;2023-04-24T12:49:53;14.80;92.20
31783;DHT22;18351;47.560;9.708;2023-04-24T12:52:21;14.70;91.70
31783;DHT22;18351;47.560;9.708;2023-04-24T12:54:47;14.70;90.60
31783;DHT22;18351;47.560;9.708;2023-04-24T12:57:12;14.70;90.00
31783;DHT22;18351;47.560;9.708;2023-04-24T12:59:38;14.70;90.80
31783;DHT22;18351;47.560;9.708;2023-04-24T13:02:05;14.50;90.40
31783;DHT22;18351;47.560;9.708;2023-04-24T13:04:31;14.50;90.30
31783;DHT22;18351;47.560;9.708;2023-04-24T13:06:56;14.40;92.80
31783;DHT22;18351;47.560;9.708;2023-04-24T13:09:22;14.50;91.80
31783;DHT22;18351;47.560;9.708;2023-04-24T13:11:49;14.50;91.00
31783;DHT22;18351;47.560;9.708;2023-04-24T13:14:15;14.80;91.80
31783;DHT22;18351;47.560;9.708;2023-04-24T13:16:40;15.00;91.10
31783;DHT22;18351;47.560;9.708;2023-04-24T13:19:06;15.30;91.10
31783;DHT22;18351;47.560;9.708;2023-04-24T13:21:31;15.60;88.60
31783;DHT22;18351;47.560;9.708;2023-04-24T13:23:57;15.80;86.80
31783;DHT22;18351;47.560;9.708;2023-04-24T13:26:23;15.80;87.80
31783;DHT22;18351;47.560;9.708;2023-04-24T13:28:48;15.80;88.60
31783;DHT22;18351;47.560;9.708;2023-04-24T13:31:14;15.90;85.30
31783;DHT22;18351;47.560;9.708;2023-04-24T13:33:39;15.80;85.40
31783;DHT22;18351;47.560;9.708;2023-04-24T13:36:05;15.60;84.40
31783;DHT22;18351;47.560;9.708;2023-04-24T13:38:31;15.40;83.10
31783;DHT22;18351;47.560;9.708;2023-04-24T13:40:57;15.50;79.60
31783;DHT22;18351;47.560;9.708;2023-04-24T13:43:22;15.50;83.60
31783;DHT22;18351;47.560;9.708;2023-04-24T13:45:48;15.50;84.00
31783;DHT22;18351;47.560;9.708;2023-04-24T13:48:14;15.60;85.00
31783;DHT22;18351;47.560;9.708;2023-04-24T13:50:43;15.70;81.70
31783;DHT22;18351;47.560;9.708;2023-04-24T13:53:09;15.80;85.30
31783;DHT22;18351;47.560;9.708;2023-04-24T13:55:35;15.90;83.70
31783;DHT22;18351;47.560;9.708;2023-04-24T13:58:01;15.80;80.30
31783;DHT22;18351;47.560;9.708;2023-04-24T14:00:28;15.90;80.80
31783;DHT22;18351;47.560;9.708;2023-04-24T14:02:53;16.00;78.70
31783;DHT22;18351;47.560;9.708;2023-04-24T14:05:19;15.80;79.00
31783;DHT22;18351;47.560;9.708;2023-04-24T14:07:46;15.70;79.10
31783;DHT22;18351;47.560;9.708;2023-04-24T14:10:11;15.70;80.00
31783;DHT22;18351;47.560;9.708;2023-04-24T14:12:37;15.50;76.40
31783;DHT22;18351;47.560;9.708;2023-04-24T14:15:03;15.30;76.30
31783;DHT22;18351;47.560;9.708;2023-04-24T14:17:30;15.30;80.20
31783;DHT22;18351;47.560;9.708;2023-04-24T14:19:56;15.20;81.90
31783;DHT22;18351;47.560;9.708;2023-04-24T14:22:22;15.40;80.90
31783;DHT22;18351;47.560;9.708;2023-04-24T14:24:48;15.70;78.10
31783;DHT22;18351;47.560;9.708;2023-04-24T14:27:13;15.80;75.90
31783;DHT22;18351;47.560;9.708;2023-04-24T14:29:39;15.70;76.70
31783;DHT22;18351;47.560;9.708;2023-04-24T14:32:04;15.50;77.00
31783;DHT22;18351;47.560;9.708;2023-04-24T14:34:30;15.50;77.90
31783;DHT22;18351;47.560;9.708;2023-04-24T14:36:56;15.50;77.80
31783;DHT22;18351;47.560;9.708;2023-04-24T14:39:21;15.60;77.50
31783;DHT22;18351;47.560;9.708;2023-04-24T14:41:47;15.70;78.50
31783;DHT22;18351;47.560;9.708;2023-04-24T14:44:12;15.90;76.60
31783;DHT22;18351;47.560;9.708;2023-04-24T14:46:38;15.90;79.10
31783;DHT22;18351;47.560;9.708;2023-04-24T14:49:04;15.70;77.00
31783;DHT22;18351;47.560;9.708;2023-04-24T14:51:30;15.80;77.70
31783;DHT22;18351;47.560;9.708;2023-04-24T14:53:56;15.90;79.10
31783;DHT22;18351;47.560;9.708;2023-04-24T14:56:22;15.90;76.40
31783;DHT22;18351;47.560;9.708;2023-04-24T14:58:48;16.00;78.00
31783;DHT22;18351;47.560;9.708;2023-04-24T15:01:14;16.10;77.10
31783;DHT22;18351;47.560;9.708;2023-04-24T15:03:40;16.20;76.30
31783;DHT22;18351;47.560;9.708;2023-04-24T15:06:05;16.10;74.00
31783;DHT22;18351;47.560;9.708;2023-04-24T15:08:31;15.90;76.20
31783;DHT22;18351;47.560;9.708;2023-04-24T15:10:57;15.70;78.30
31783;DHT22;18351;47.560;9.708;2023-04-24T15:13:22;15.70;80.40
31783;DHT22;18351;47.560;9.708;2023-04-24T15:15:48;15.90;80.50
31783;DHT22;18351;47.560;9.708;2023-04-24T15:18:14;16.10;79.70
31783;DHT22;18351;47.560;9.708;2023-04-24T15:20:39;16.00;79.10
31783;DHT22;18351;47.560;9.708;2023-04-24T15:23:08;15.90;78.80
31783;DHT22;18351;47.560;9.708;2023-04-24T15:25:34;15.90;77.70
31783;DHT22;18351;47.560;9.708;2023-04-24T15:28:00;15.70;73.10
31783;DHT22;18351;47.560;9.708;2023-04-24T15:30:26;15.70;77.60
31783;DHT22;18351;47.560;9.708;2023-04-24T15:32:52;15.80;75.60
31783;DHT22;18351;47.560;9.708;2023-04-24T15:35:17;15.80;77.10
31783;DHT22;18351;47.560;9.708;2023-04-24T15:37:43;15.70;75.50